»·PEaware :: COBRA11 KEND-KEND

COBRA11 :: KEND-KEND

FLIGHT INFORMATION

Flight Status: Arrived
Operator: Unknown
More flights by this operator :: More flights under this callsign
Pilot: Martin G. (22231)
Aircraft: BEECH AIRCRAFT T-6A TEXAN
(TEX2)
More flights by this aircraft type
Origin: KEND Vance AFB
United States
Destination: KEND Vance AFB
United States
More flights between these airports :: More routes between these airports
Route: +END9 PLAINS
File this flight plan on PilotEdge
Remarks:
Altitude:
(Current/Filed)
0ft
Speed:
(Current/Filed)
0kts
Departed: 26-Mar-20 10:16 AM
Arrived: 26-Mar-20 10:58 AM
Distance/Time
Traveled:
0nm/0:42
Distance/Time
To Go:
Arrived

Flight Plot

Page will automatically refresh every two minutes.


Map Options




Map Legend


Flown Route
Filed Route
Departure Airport
Arrival Airport
Navaid (VOR, NDB)
Fix

Horizontal Profiles

Position Reports

Time Latitude Longitude Heading Altitude Ground
Speed
26-Mar-20 10:09 36.346958 -97.909999 206 1279ft 0kts
26-Mar-20 10:10 36.346826 -97.910033 211 1279ft 0kts
26-Mar-20 10:11 36.346826 -97.910033 211 1279ft 0kts
26-Mar-20 10:12 36.346826 -97.910033 211 1279ft 0kts
26-Mar-20 10:13 36.346824 -97.910035 210 1279ft 0kts
26-Mar-20 10:14 36.346808 -97.910738 285 1279ft 10kts
26-Mar-20 10:15 36.329686 -97.911049 181 1551ft 160kts
26-Mar-20 10:16 36.272389 -97.910422 180 2326ft 233kts
26-Mar-20 10:17 36.230013 -97.881198 69 4988ft 209kts
26-Mar-20 10:18 36.287145 -97.865150 354 5071ft 240kts
26-Mar-20 10:19 36.356284 -97.885641 336 5075ft 247kts
26-Mar-20 10:20 36.422462 -97.909223 358 5013ft 254kts
26-Mar-20 10:21 36.493791 -97.907012 0 5058ft 255kts
26-Mar-20 10:22 36.561322 -97.903959 359 5993ft 244kts
26-Mar-20 10:23 36.616776 -97.933097 287 6030ft 241kts
26-Mar-20 10:24 36.638429 -98.015040 289 5845ft 254kts
26-Mar-20 10:25 36.660345 -98.098722 287 4564ft 263kts
26-Mar-20 10:26 36.683436 -98.174507 290 4046ft 203kts
26-Mar-20 10:27 36.701748 -98.237457 290 4599ft 194kts
26-Mar-20 10:28 36.723984 -98.303801 290 4488ft 207kts
26-Mar-20 10:29 36.746082 -98.370199 293 4508ft 206kts
26-Mar-20 10:30 36.768139 -98.437100 287 4388ft 209kts
26-Mar-20 10:31 36.770002 -98.508783 266 4467ft 215kts
26-Mar-20 10:32 36.764392 -98.584323 255 4387ft 227kts
26-Mar-20 10:33 36.800423 -98.618351 344 3971ft 228kts
26-Mar-20 10:34 36.807829 -98.668777 209 2651ft 155kts
26-Mar-20 10:35 36.757664 -98.668081 180 2953ft 198kts
26-Mar-20 10:36 36.790119 -98.648021 358 3060ft 184kts
26-Mar-20 10:37 36.791355 -98.669865 183 1930ft 117kts
26-Mar-20 10:38 36.759770 -98.670353 180 1850ft 166kts
26-Mar-20 10:39 36.742590 -98.617379 81 3025ft 225kts
26-Mar-20 10:40 36.751101 -98.542719 107 4508ft 205kts
26-Mar-20 10:41 36.734998 -98.473750 102 7236ft 197kts
26-Mar-20 10:42 36.721731 -98.404908 101 7559ft 214kts
26-Mar-20 10:43 36.707022 -98.323731 105 7581ft 255kts
26-Mar-20 10:44 36.684160 -98.235470 110 7464ft 268kts
26-Mar-20 10:45 36.670912 -98.143541 89 7517ft 267kts
26-Mar-20 10:46 36.672153 -98.049220 90 7505ft 268kts
26-Mar-20 10:47 36.672116 -97.951667 90 6096ft 273kts
26-Mar-20 10:48 36.671778 -97.858363 90 6120ft 263kts
26-Mar-20 10:49 36.634415 -97.803350 175 5022ft 257kts
26-Mar-20 10:50 36.566384 -97.804335 185 2785ft 221kts
26-Mar-20 10:51 36.513692 -97.835613 218 2236ft 216kts
26-Mar-20 10:52 36.473352 -97.888167 238 2286ft 212kts
26-Mar-20 10:53 36.421340 -97.907613 183 2274ft 210kts
26-Mar-20 10:54 36.363905 -97.910616 184 2240ft 207kts
26-Mar-20 10:55 36.348670 -97.897472 354 2183ft 108kts
26-Mar-20 10:56 36.342098 -97.911002 180 1283ft 68kts
26-Mar-20 10:57 36.333646 -97.910363 34 1291ft 0kts

Navigation Log

Ident Type
Flight plan parsing failed, navigation log unavailable